createdAt,value
2023-07-25T00:00:17.816Z,0
2023-07-25T00:00:47.836Z,0
2023-07-25T00:01:17.827Z,0
2023-07-25T00:01:47.878Z,0
2023-07-25T00:02:17.842Z,0
2023-07-25T00:02:47.862Z,0
2023-07-25T00:03:17.888Z,0
2023-07-25T00:03:47.949Z,0
2023-07-25T00:04:47.882Z,0
2023-07-25T00:05:17.884Z,0
2023-07-25T00:05:47.886Z,0
2023-07-25T00:06:17.901Z,0
2023-07-25T00:06:47.901Z,0
2023-07-25T00:07:17.919Z,0
2023-07-25T00:07:47.941Z,0
2023-07-25T00:08:17.929Z,0
2023-07-25T00:08:47.928Z,0
2023-07-25T00:09:17.937Z,0
2023-07-25T00:09:47.943Z,0
2023-07-25T00:10:17.949Z,0
2023-07-25T00:10:47.965Z,0
2023-07-25T00:11:47.978Z,0
2023-07-25T00:12:17.965Z,0
2023-07-25T00:12:47.978Z,0
2023-07-25T00:13:18.007Z,0
2023-07-25T00:13:47.997Z,0
2023-07-25T00:14:17.998Z,0
2023-07-25T00:14:48.008Z,0
2023-07-25T00:15:18.019Z,0
2023-07-25T00:15:48.586Z,0
2023-07-25T00:16:18.109Z,0
2023-07-25T00:16:48.107Z,0
2023-07-25T00:17:18.035Z,0
2023-07-25T00:17:48.095Z,0
2023-07-25T00:18:18.053Z,0
2023-07-25T00:18:48.061Z,0
2023-07-25T00:19:18.059Z,0
2023-07-25T00:19:48.075Z,0
2023-07-25T00:20:18.078Z,0
2023-07-25T00:20:48.100Z,0
2023-07-25T00:21:18.139Z,0
2023-07-25T00:21:48.124Z,0
2023-07-25T00:22:18.119Z,0
2023-07-25T00:22:48.121Z,0
2023-07-25T00:23:18.106Z,0
2023-07-25T00:23:48.131Z,0
2023-07-25T00:24:18.166Z,0
2023-07-25T00:24:48.145Z,0
2023-07-25T00:25:18.200Z,0
2023-07-25T00:25:48.206Z,0
2023-07-25T00:26:18.169Z,0
2023-07-25T00:26:48.159Z,0
2023-07-25T00:27:18.174Z,0
2023-07-25T00:27:48.177Z,0
2023-07-25T00:28:18.181Z,0
2023-07-25T00:28:48.190Z,0
2023-07-25T00:29:18.189Z,0
2023-07-25T00:29:48.208Z,0
2023-07-25T00:30:18.214Z,0
2023-07-25T00:30:48.226Z,0
2023-07-25T00:31:18.227Z,0
2023-07-25T00:31:48.246Z,0
2023-07-25T00:32:18.232Z,0
2023-07-25T00:32:48.274Z,0
2023-07-25T00:33:18.247Z,0
2023-07-25T00:33:48.256Z,0
2023-07-25T00:34:18.261Z,0
2023-07-25T00:34:48.268Z,0
2023-07-25T00:35:18.283Z,0
2023-07-25T00:35:48.282Z,0
2023-07-25T00:36:18.286Z,0
2023-07-25T00:36:48.299Z,0
2023-07-25T00:37:18.306Z,0
2023-07-25T00:37:48.310Z,0
2023-07-25T00:38:18.307Z,0
2023-07-25T00:38:48.317Z,0
2023-07-25T00:39:18.322Z,0
2023-07-25T00:39:48.337Z,0
2023-07-25T00:40:18.352Z,0
2023-07-25T00:40:48.350Z,0
2023-07-25T00:41:18.348Z,0
2023-07-25T00:41:48.356Z,0
2023-07-25T00:42:18.375Z,0
2023-07-25T00:42:48.372Z,0
2023-07-25T00:43:18.369Z,0
2023-07-25T00:43:48.387Z,0
2023-07-25T00:44:18.390Z,0
2023-07-25T00:44:48.399Z,0
2023-07-25T00:45:18.412Z,0
2023-07-25T00:45:48.454Z,0
2023-07-25T00:46:18.452Z,0
2023-07-25T00:46:48.430Z,0
2023-07-25T00:47:18.428Z,0
2023-07-25T00:47:48.442Z,0
2023-07-25T00:48:18.444Z,0
2023-07-25T00:48:48.450Z,0
2023-07-25T00:49:18.457Z,0
2023-07-25T00:49:48.474Z,0
2023-07-25T00:50:18.479Z,0
2023-07-25T00:50:48.476Z,0
2023-07-25T00:51:18.483Z,0
2023-07-25T00:51:48.496Z,0
2023-07-25T00:52:18.507Z,0
2023-07-25T00:52:48.518Z,0
2023-07-25T00:53:18.507Z,0
2023-07-25T00:53:48.518Z,0
2023-07-25T00:54:18.526Z,0
2023-07-25T00:54:48.534Z,0
2023-07-25T00:55:18.535Z,0
2023-07-25T00:55:48.560Z,0
2023-07-25T00:56:18.562Z,0
2023-07-25T00:56:48.560Z,0
2023-07-25T00:57:18.560Z,0
2023-07-25T00:57:48.570Z,0
2023-07-25T00:58:18.584Z,0
2023-07-25T00:58:48.595Z,0
2023-07-25T00:59:18.584Z,0
2023-07-25T00:59:48.591Z,0
2023-07-25T01:00:18.609Z,0
2023-07-25T01:00:48.609Z,0
2023-07-25T01:01:18.661Z,0
2023-07-25T01:01:48.645Z,0
2023-07-25T01:02:48.693Z,0
2023-07-25T01:03:18.727Z,0
2023-07-25T01:03:48.732Z,0
2023-07-25T01:04:18.648Z,0
2023-07-25T01:04:48.660Z,0
2023-07-25T01:05:18.672Z,0
2023-07-25T01:05:48.683Z,0
2023-07-25T01:06:18.675Z,0
2023-07-25T01:06:48.685Z,0
2023-07-25T01:07:18.707Z,0
2023-07-25T01:07:48.697Z,0
2023-07-25T01:08:18.703Z,0
2023-07-25T01:08:48.716Z,0
2023-07-25T01:09:18.716Z,0
2023-07-25T01:09:48.766Z,0
2023-07-25T01:10:18.757Z,0
2023-07-25T01:10:48.741Z,0
2023-07-25T01:11:18.745Z,0
2023-07-25T01:11:48.760Z,0
2023-07-25T01:12:18.759Z,0
2023-07-25T01:12:48.763Z,0
2023-07-25T01:13:18.775Z,0
2023-07-25T01:13:48.774Z,0
2023-07-25T01:14:18.790Z,0
2023-07-25T01:14:48.794Z,0
2023-07-25T01:15:18.795Z,0
2023-07-25T01:15:48.856Z,0
2023-07-25T01:16:18.828Z,0
2023-07-25T01:16:48.847Z,0
2023-07-25T01:17:18.839Z,0
2023-07-25T01:17:48.872Z,0
2023-07-25T01:18:18.841Z,0
2023-07-25T01:18:48.844Z,0
2023-07-25T01:19:18.847Z,0
2023-07-25T01:19:48.864Z,0
2023-07-25T01:20:18.861Z,0
2023-07-25T01:20:48.868Z,0
2023-07-25T01:21:18.875Z,0
2023-07-25T01:21:48.882Z,0
2023-07-25T01:22:18.894Z,0
2023-07-25T01:22:48.892Z,0
2023-07-25T01:23:18.900Z,0
2023-07-25T01:23:48.904Z,0
2023-07-25T01:24:18.920Z,0
2023-07-25T01:24:48.985Z,0
2023-07-25T01:25:18.935Z,0
2023-07-25T01:25:48.933Z,0
2023-07-25T01:26:18.949Z,0
2023-07-25T01:26:48.967Z,0
2023-07-25T01:27:18.951Z,0
2023-07-25T01:27:48.967Z,0
2023-07-25T01:28:18.969Z,0
2023-07-25T01:28:48.972Z,0
2023-07-25T01:29:18.989Z,0
2023-07-25T01:29:48.986Z,0
2023-07-25T01:30:18.990Z,0
2023-07-25T01:30:49.000Z,0
2023-07-25T01:31:19.005Z,0
2023-07-25T01:31:49.013Z,0
2023-07-25T01:32:19.013Z,0
2023-07-25T01:32:49.074Z,0
2023-07-25T01:33:19.028Z,0
2023-07-25T01:33:49.067Z,0
2023-07-25T01:34:19.056Z,0
2023-07-25T01:34:49.057Z,0
2023-07-25T01:35:19.077Z,0
2023-07-25T01:35:49.068Z,0
2023-07-25T01:36:49.080Z,0
2023-07-25T01:37:19.086Z,0
2023-07-25T01:37:49.088Z,0
2023-07-25T01:38:19.098Z,0
2023-07-25T01:38:49.107Z,0
2023-07-25T01:39:19.112Z,0
2023-07-25T01:39:49.120Z,0
2023-07-25T01:40:19.138Z,0
2023-07-25T01:40:49.144Z,0
2023-07-25T01:41:19.134Z,0
2023-07-25T01:41:49.169Z,0
2023-07-25T01:42:19.154Z,0
2023-07-25T01:42:49.164Z,0
2023-07-25T01:43:19.159Z,0
2023-07-25T01:43:49.193Z,0
2023-07-25T01:44:19.182Z,0
2023-07-25T01:44:49.196Z,0
2023-07-25T01:45:19.189Z,0
2023-07-25T01:45:49.225Z,0
2023-07-25T01:46:19.202Z,0
2023-07-25T01:46:49.221Z,0
2023-07-25T01:47:19.225Z,0
2023-07-25T01:47:49.272Z,0
2023-07-25T01:48:19.229Z,0
2023-07-25T01:48:49.235Z,0
2023-07-25T01:49:19.233Z,0
2023-07-25T01:49:49.246Z,0
2023-07-25T01:50:19.255Z,0
2023-07-25T01:50:49.290Z,0
2023-07-25T01:51:19.296Z,0
2023-07-25T01:51:49.274Z,0
2023-07-25T01:52:19.276Z,0
2023-07-25T01:52:49.301Z,0
2023-07-25T01:53:19.338Z,0
2023-07-25T01:53:49.301Z,0
2023-07-25T01:54:19.313Z,0
2023-07-25T01:54:49.332Z,0
2023-07-25T01:55:19.322Z,0
2023-07-25T01:55:49.335Z,0
2023-07-25T01:56:19.331Z,0
2023-07-25T01:56:50.736Z,0
2023-07-25T01:57:19.365Z,0
2023-07-25T01:57:49.365Z,0
2023-07-25T01:58:19.357Z,0
2023-07-25T01:58:49.373Z,0
2023-07-25T01:59:19.398Z,0
2023-07-25T01:59:49.386Z,0
2023-07-25T02:00:19.400Z,0
2023-07-25T02:00:49.428Z,0
2023-07-25T02:01:19.429Z,0
2023-07-25T02:01:49.424Z,0
2023-07-25T02:02:19.434Z,0
2023-07-25T02:02:49.541Z,0
2023-07-25T02:03:19.567Z,0
2023-07-25T02:03:49.443Z,0
2023-07-25T02:04:19.444Z,0
2023-07-25T02:04:49.454Z,0
2023-07-25T02:05:19.468Z,0
2023-07-25T02:05:49.502Z,0
2023-07-25T02:06:19.473Z,0
2023-07-25T02:06:49.473Z,0
2023-07-25T02:07:19.481Z,0
2023-07-25T02:07:49.495Z,0
2023-07-25T02:08:19.493Z,0
2023-07-25T02:08:49.508Z,0
2023-07-25T02:09:19.504Z,0
2023-07-25T02:09:49.520Z,0
2023-07-25T02:10:19.525Z,0
2023-07-25T02:10:49.520Z,0
2023-07-25T02:11:19.531Z,0
2023-07-25T02:11:49.556Z,0
2023-07-25T02:12:19.539Z,0
2023-07-25T02:12:49.565Z,0
2023-07-25T02:13:19.568Z,0
2023-07-25T02:13:49.564Z,0
2023-07-25T02:14:19.568Z,0
2023-07-25T02:14:49.576Z,0
2023-07-25T02:15:19.591Z,0
2023-07-25T02:15:49.593Z,0
2023-07-25T02:16:19.651Z,0
2023-07-25T02:16:49.667Z,0
2023-07-25T02:17:19.607Z,0
2023-07-25T02:17:49.669Z,0
2023-07-25T02:18:19.621Z,0
2023-07-25T02:18:49.641Z,0
2023-07-25T02:19:19.634Z,0
2023-07-25T02:19:49.642Z,0
2023-07-25T02:20:19.662Z,0
2023-07-25T02:20:49.655Z,0
2023-07-25T02:21:19.676Z,0
2023-07-25T02:21:49.671Z,0
2023-07-25T02:22:19.672Z,0
2023-07-25T02:22:49.690Z,0
2023-07-25T02:23:19.736Z,0
2023-07-25T02:23:49.709Z,0
2023-07-25T02:24:19.756Z,0
2023-07-25T02:24:49.750Z,0
2023-07-25T02:25:19.723Z,0
2023-07-25T02:25:49.722Z,0
2023-07-25T02:26:19.735Z,0
2023-07-25T02:26:49.732Z,0
2023-07-25T02:27:19.746Z,0
2023-07-25T02:27:49.759Z,0
2023-07-25T02:28:19.761Z,0
2023-07-25T02:28:49.786Z,0
2023-07-25T02:29:19.765Z,0
2023-07-25T02:29:49.785Z,0
2023-07-25T02:30:19.784Z,0
2023-07-25T02:30:49.824Z,0
2023-07-25T02:31:19.830Z,0
2023-07-25T02:31:49.815Z,0
2023-07-25T02:32:19.822Z,0
2023-07-25T02:32:49.828Z,0
2023-07-25T02:33:19.829Z,0
2023-07-25T02:33:49.846Z,0
2023-07-25T02:34:19.832Z,0
2023-07-25T02:34:49.848Z,0
2023-07-25T02:35:19.863Z,0
2023-07-25T02:35:49.868Z,0
2023-07-25T02:36:19.869Z,0
2023-07-25T02:36:49.872Z,0
2023-07-25T02:37:19.908Z,0
2023-07-25T02:37:49.882Z,0
2023-07-25T02:38:19.892Z,0
2023-07-25T02:38:49.897Z,0
2023-07-25T02:39:19.900Z,0
2023-07-25T02:39:49.912Z,0
2023-07-25T02:40:19.928Z,0
2023-07-25T02:40:49.931Z,0
2023-07-25T02:41:19.925Z,0
2023-07-25T02:41:49.946Z,0
2023-07-25T02:42:19.948Z,0
2023-07-25T02:42:49.950Z,0
2023-07-25T02:43:19.962Z,0
2023-07-25T02:43:49.960Z,0
2023-07-25T02:44:19.967Z,0
2023-07-25T02:44:49.997Z,0
2023-07-25T02:45:19.979Z,0
2023-07-25T02:45:50.004Z,0
2023-07-25T02:46:20.003Z,0
2023-07-25T02:46:50.052Z,0
2023-07-25T02:47:20.017Z,0
2023-07-25T02:47:50.076Z,0
2023-07-25T02:48:20.021Z,0
2023-07-25T02:48:50.027Z,0
2023-07-25T02:49:20.035Z,0
2023-07-25T02:49:50.041Z,0
2023-07-25T02:50:20.046Z,0
2023-07-25T02:50:50.070Z,0
2023-07-25T02:51:20.057Z,0
2023-07-25T02:51:50.066Z,0
2023-07-25T02:52:20.071Z,0
2023-07-25T02:52:50.102Z,0
2023-07-25T02:53:20.104Z,0
2023-07-25T02:53:50.098Z,0
2023-07-25T02:54:20.100Z,0
2023-07-25T02:54:50.104Z,0
2023-07-25T02:55:20.110Z,0
2023-07-25T02:55:50.118Z,0
2023-07-25T02:56:20.118Z,0
2023-07-25T02:56:50.148Z,0
2023-07-25T02:57:20.147Z,0
2023-07-25T02:57:50.182Z,0
2023-07-25T02:58:20.150Z,0
2023-07-25T02:58:50.155Z,0
2023-07-25T02:59:20.188Z,0
2023-07-25T02:59:50.173Z,0
2023-07-25T03:00:20.179Z,0
2023-07-25T03:00:50.206Z,0
2023-07-25T03:01:20.213Z,0
2023-07-25T03:01:50.230Z,0
2023-07-25T03:02:20.224Z,0
2023-07-25T03:02:50.224Z,0
2023-07-25T03:03:20.213Z,0
2023-07-25T03:03:50.225Z,0
2023-07-25T03:04:20.250Z,0
2023-07-25T03:04:50.260Z,0
2023-07-25T03:05:50.253Z,0
2023-07-25T03:06:20.255Z,0
2023-07-25T03:06:50.258Z,0
2023-07-25T03:07:20.274Z,0
2023-07-25T03:07:50.286Z,0
2023-07-25T03:08:20.287Z,0
2023-07-25T03:08:50.292Z,0
2023-07-25T03:09:20.288Z,0
2023-07-25T03:09:50.317Z,0
2023-07-25T03:10:20.308Z,0
2023-07-25T03:10:50.317Z,0
2023-07-25T03:11:20.339Z,0
2023-07-25T03:11:50.333Z,0
2023-07-25T03:12:20.333Z,0
2023-07-25T03:12:50.337Z,0
2023-07-25T03:13:20.361Z,0
2023-07-25T03:13:50.354Z,0
2023-07-25T03:14:20.360Z,0
2023-07-25T03:14:50.368Z,0
2023-07-25T03:15:20.394Z,0
2023-07-25T03:15:50.399Z,0
2023-07-25T03:16:20.403Z,0
2023-07-25T03:16:50.422Z,0
2023-07-25T03:17:20.400Z,0
2023-07-25T03:17:50.431Z,0
2023-07-25T03:18:20.415Z,0
2023-07-25T03:18:50.422Z,0
2023-07-25T03:19:20.442Z,0
2023-07-25T03:19:50.434Z,0
2023-07-25T03:20:20.447Z,0
2023-07-25T03:20:50.452Z,0
2023-07-25T03:21:20.453Z,0
2023-07-25T03:21:50.465Z,0
2023-07-25T03:22:20.478Z,0
2023-07-25T03:22:50.480Z,0
2023-07-25T03:23:20.471Z,0
2023-07-25T03:23:50.508Z,0
2023-07-25T03:24:20.557Z,0
2023-07-25T03:24:50.543Z,0
2023-07-25T03:25:20.528Z,0.65
2023-07-25T03:25:50.525Z,0.8
2023-07-25T03:26:20.511Z,0.95
2023-07-25T03:26:34.113Z,1.61
2023-07-25T03:26:50.525Z,3.29
2023-07-25T03:26:57.092Z,1.83
2023-07-25T03:27:13.099Z,2.29
2023-07-25T03:27:20.539Z,0.62
2023-07-25T03:27:39.114Z,2.48
2023-07-25T03:27:50.534Z,1.21
2023-07-25T03:27:58.096Z,2.16
2023-07-25T03:28:13.099Z,2.52
2023-07-25T03:28:21.311Z,2.45
2023-07-25T03:28:43.121Z,2.35
2023-07-25T03:28:50.550Z,1.33
2023-07-25T03:29:12.103Z,2.42
2023-07-25T03:29:20.565Z,1.6
2023-07-25T03:29:31.108Z,1.38
2023-07-25T03:29:45.105Z,2.53
2023-07-25T03:29:50.562Z,1.45
2023-07-25T03:30:19.122Z,1.51
2023-07-25T03:30:20.610Z,1.51
2023-07-25T03:30:36.134Z,2.92
2023-07-25T03:30:48.115Z,3.12
2023-07-25T03:30:50.609Z,1.35
2023-07-25T03:31:20.579Z,1.35
2023-07-25T03:31:50.589Z,1.47
2023-07-25T03:32:20.613Z,1.6
2023-07-25T03:32:50.629Z,1.83
2023-07-25T03:33:20.621Z,1.85
2023-07-25T03:33:31.106Z,3.84
2023-07-25T03:33:50.624Z,2.69
2023-07-25T03:34:04.108Z,3.15
2023-07-25T03:34:20.631Z,2.86
2023-07-25T03:34:25.100Z,2.65
2023-07-25T03:34:36.118Z,2.27
2023-07-25T03:34:50.631Z,2.82
2023-07-25T03:35:10.112Z,4.91
2023-07-25T03:35:20.647Z,2.8
2023-07-25T03:35:33.133Z,2.71
2023-07-25T03:35:40.109Z,4.28
2023-07-25T03:35:50.648Z,2.33
2023-07-25T03:36:15.114Z,4.1
2023-07-25T03:36:20.662Z,4.27
2023-07-25T03:36:35.126Z,3.55
2023-07-25T03:36:40.109Z,2.52
2023-07-25T03:36:50.665Z,4.33
2023-07-25T03:37:16.134Z,2.41
2023-07-25T03:37:20.660Z,3.66
2023-07-25T03:37:22.109Z,3.88
2023-07-25T03:37:40.108Z,2.49
2023-07-25T03:37:50.670Z,3.35
2023-07-25T03:38:19.126Z,2.68
2023-07-25T03:38:20.677Z,2.68
2023-07-25T03:38:24.118Z,3.72
2023-07-25T03:38:42.115Z,2.73
2023-07-25T03:38:50.690Z,2.64
2023-07-25T03:39:20.709Z,3.86
2023-07-25T03:39:28.116Z,3.54
2023-07-25T03:39:42.116Z,2.29
2023-07-25T03:39:49.124Z,3.94
2023-07-25T03:39:50.705Z,3.94
2023-07-25T03:40:20.731Z,2.51
2023-07-25T03:40:28.115Z,3.79
2023-07-25T03:40:43.117Z,4.01
2023-07-25T03:40:50.740Z,3.59
2023-07-25T03:41:22.117Z,3.35
2023-07-25T03:41:31.320Z,5.57
2023-07-25T03:41:43.125Z,2.25
2023-07-25T03:41:50.746Z,3.63
2023-07-25T03:42:28.125Z,4.48
2023-07-25T03:42:33.128Z,6.05
2023-07-25T03:42:44.125Z,4.84
2023-07-25T03:42:50.742Z,5.66
2023-07-25T03:43:37.167Z,5.18
2023-07-25T03:43:48.126Z,4.28
2023-07-25T03:43:50.758Z,4.17
2023-07-25T03:44:43.153Z,4.63
2023-07-25T03:44:49.129Z,6.53
2023-07-25T03:44:50.770Z,6.53
2023-07-25T03:45:48.197Z,7.6
2023-07-25T03:45:50.786Z,7.86
2023-07-25T03:46:50.806Z,7.83
2023-07-25T03:47:20.814Z,7.02
2023-07-25T03:47:34.154Z,8.68
2023-07-25T03:47:50.875Z,9.02
2023-07-25T03:48:20.822Z,9.66
2023-07-25T03:48:50.836Z,10.29
2023-07-25T03:49:00.166Z,10.9
2023-07-25T03:49:11.134Z,10.33
2023-07-25T03:49:20.835Z,6.12
2023-07-25T03:49:50.839Z,12.87
2023-07-25T03:50:01.166Z,7.64
2023-07-25T03:50:12.134Z,8.95
2023-07-25T03:50:20.853Z,13.47
2023-07-25T03:50:50.858Z,13.04
2023-07-25T03:51:09.133Z,11.42
2023-07-25T03:51:20.870Z,12.79
2023-07-25T03:51:50.868Z,14.07
2023-07-25T03:52:20.889Z,13.98
2023-07-25T03:52:50.887Z,13.85
2023-07-25T03:52:52.143Z,10.9
2023-07-25T03:53:20.897Z,13.81
2023-07-25T03:53:50.893Z,12.98
2023-07-25T03:53:52.146Z,12.45
2023-07-25T03:54:20.900Z,12.6
2023-07-25T03:54:24.140Z,15.35
2023-07-25T03:54:50.914Z,15.54
2023-07-25T03:55:12.148Z,16.56
2023-07-25T03:55:20.914Z,16.87
2023-07-25T03:55:36.157Z,17.77
2023-07-25T03:55:50.920Z,18.12
2023-07-25T03:56:20.923Z,16.97
2023-07-25T03:56:40.164Z,15.47
2023-07-25T03:56:50.944Z,15.54
2023-07-25T03:57:20.946Z,14.95
2023-07-25T03:57:50.958Z,15.05
2023-07-25T03:58:20.956Z,16.18
2023-07-25T03:58:21.160Z,16.51
2023-07-25T03:58:50.966Z,17.03
2023-07-25T03:59:20.989Z,16.69
2023-07-25T03:59:25.148Z,17.03
2023-07-25T03:59:50.979Z,18.05
2023-07-25T04:00:21.163Z,18.67
2023-07-25T04:00:27.157Z,17.05
2023-07-25T04:00:50.999Z,16.2
2023-07-25T04:01:49.196Z,14.63
2023-07-25T04:01:51.030Z,14.63
2023-07-25T04:01:54.193Z,16.14
2023-07-25T04:02:57.516Z,16.11
2023-07-25T04:03:16.221Z,15.37
2023-07-25T04:03:16.569Z,16.37
2023-07-25T04:03:51.101Z,15.77
2023-07-25T04:04:21.071Z,15.15
2023-07-25T04:04:45.311Z,16.41
2023-07-25T04:04:51.106Z,16.31
2023-07-25T04:05:21.066Z,17.48
2023-07-25T04:05:48.166Z,13.86
2023-07-25T04:05:51.063Z,14.56
2023-07-25T04:05:54.167Z,18.23
2023-07-25T04:06:21.077Z,18.79
2023-07-25T04:06:51.079Z,18.88
2023-07-25T04:07:21.078Z,17.81
2023-07-25T04:07:31.187Z,16.96
2023-07-25T04:07:51.091Z,17.47
2023-07-25T04:08:21.112Z,17.31
2023-07-25T04:08:51.105Z,17.18
2023-07-25T04:09:18.180Z,17.98
2023-07-25T04:09:21.111Z,17.86
2023-07-25T04:09:51.122Z,17.43
2023-07-25T04:09:53.176Z,16.62
2023-07-25T04:10:21.131Z,16.84
2023-07-25T04:10:27.176Z,15.56
2023-07-25T04:10:51.155Z,15.79
2023-07-25T04:11:21.143Z,15.68
2023-07-25T04:11:51.147Z,15.87
2023-07-25T04:12:21.159Z,16.33
2023-07-25T04:12:51.168Z,15.81
2023-07-25T04:13:21.212Z,15.4
2023-07-25T04:13:51.174Z,15.89
2023-07-25T04:14:21.182Z,15.78
2023-07-25T04:14:51.200Z,14.95
2023-07-25T04:15:21.212Z,15.38
2023-07-25T04:15:51.217Z,15.8
2023-07-25T04:16:03.219Z,16.64
2023-07-25T04:16:21.257Z,16.74
2023-07-25T04:16:51.236Z,16.55
2023-07-25T04:17:16.185Z,15.09
2023-07-25T04:17:21.448Z,9.25
2023-07-25T04:17:27.210Z,10.86
2023-07-25T04:17:51.334Z,18.84
2023-07-25T04:18:18.186Z,16.79
2023-07-25T04:18:49.191Z,11.91
2023-07-25T04:18:51.279Z,10.96
2023-07-25T04:19:16.192Z,16.91
2023-07-25T04:19:21.476Z,18.57
2023-07-25T04:19:49.197Z,11.91
2023-07-25T04:19:51.256Z,9.78
2023-07-25T04:20:18.194Z,18.91
2023-07-25T04:20:36.217Z,17.37
2023-07-25T04:20:49.200Z,18.47
2023-07-25T04:20:51.268Z,19.08
2023-07-25T04:21:21.294Z,17.95
2023-07-25T04:21:51.297Z,17.71
2023-07-25T04:22:21.284Z,18.93
2023-07-25T04:22:51.335Z,18.73
2023-07-25T04:23:21.300Z,18.93
2023-07-25T04:23:51.315Z,19.07
2023-07-25T04:24:21.378Z,18.71
2023-07-25T04:24:24.229Z,12.79
2023-07-25T04:24:51.337Z,20.06
2023-07-25T04:25:06.212Z,19.72
2023-07-25T04:25:21.332Z,20.06
2023-07-25T04:25:34.200Z,19.84
2023-07-25T04:25:51.339Z,19.16
2023-07-25T04:25:52.214Z,18.15
2023-07-25T04:26:13.206Z,19.17
2023-07-25T04:26:21.357Z,19.18
2023-07-25T04:26:46.210Z,20.27
2023-07-25T04:26:51.352Z,20.51
2023-07-25T04:27:04.220Z,21.54
2023-07-25T04:27:21.356Z,22.81
2023-07-25T04:27:51.368Z,24.75
2023-07-25T04:28:21.385Z,25.01
2023-07-25T04:28:24.238Z,25.31
2023-07-25T04:28:51.385Z,26.09
2023-07-25T04:29:21.390Z,26.28
2023-07-25T04:29:51.399Z,26.91
2023-07-25T04:30:21.427Z,27.72
2023-07-25T04:30:51.413Z,27.82
2023-07-25T04:31:21.425Z,27.82
2023-07-25T04:31:27.283Z,28.28
2023-07-25T04:31:51.428Z,28.59
2023-07-25T04:32:21.450Z,28.29
2023-07-25T04:32:51.499Z,27.28
2023-07-25T04:33:07.228Z,26.03
2023-07-25T04:33:21.441Z,27.92
2023-07-25T04:33:37.223Z,26.4
2023-07-25T04:33:51.450Z,27.13
2023-07-25T04:34:18.255Z,27.85
2023-07-25T04:34:21.481Z,28.31
2023-07-25T04:34:51.524Z,29.78
2023-07-25T04:35:21.482Z,30.74
2023-07-25T04:35:51.481Z,28.9
2023-07-25T04:35:52.235Z,21.2
2023-07-25T04:36:21.545Z,30
2023-07-25T04:36:51.495Z,33.03
2023-07-25T04:37:21.504Z,33.16
2023-07-25T04:37:51.254Z,31.07
2023-07-25T04:37:51.507Z,31.07
2023-07-25T04:38:21.534Z,31.97
2023-07-25T04:38:51.520Z,34.11
2023-07-25T04:39:19.237Z,22.59
2023-07-25T04:39:21.541Z,24.03
2023-07-25T04:39:51.537Z,31.22
2023-07-25T04:40:21.552Z,30.52
2023-07-25T04:40:43.237Z,29.44
2023-07-25T04:40:51.554Z,29.56
2023-07-25T04:41:21.558Z,29.76
2023-07-25T04:41:37.236Z,18.28
2023-07-25T04:41:43.237Z,29.47
2023-07-25T04:41:51.559Z,29.46
2023-07-25T04:42:21.568Z,29.9
2023-07-25T04:42:51.588Z,31.55
2023-07-25T04:43:03.246Z,33.01
2023-07-25T04:43:21.615Z,32.32
2023-07-25T04:43:37.265Z,31.31
2023-07-25T04:43:51.592Z,30.4
2023-07-25T04:44:21.613Z,28.91
2023-07-25T04:44:43.238Z,28.03
2023-07-25T04:44:51.601Z,27.85
2023-07-25T04:45:21.614Z,27.65
2023-07-25T04:45:54.836Z,27.95
2023-07-25T04:46:13.257Z,29.51
2023-07-25T04:46:21.663Z,28.58
2023-07-25T04:46:51.655Z,30.71
2023-07-25T04:47:00.246Z,31.18
2023-07-25T04:47:21.643Z,32.46
2023-07-25T04:47:24.249Z,32.94
2023-07-25T04:48:13.247Z,38.26
2023-07-25T04:48:21.665Z,39.46
2023-07-25T04:48:28.248Z,40.35
2023-07-25T04:49:21.687Z,44.88
2023-07-25T04:49:51.680Z,45.89
2023-07-25T04:49:52.264Z,46.11
2023-07-25T04:50:21.680Z,46.58
2023-07-25T04:50:51.696Z,47.21
2023-07-25T04:51:21.696Z,46.03
2023-07-25T04:51:27.249Z,30.36
2023-07-25T04:51:51.712Z,44.71
2023-07-25T04:52:21.711Z,44.61
2023-07-25T04:52:37.254Z,43.65
2023-07-25T04:52:51.725Z,43.97
2023-07-25T04:53:16.256Z,48.23
2023-07-25T04:53:21.729Z,49.03
2023-07-25T04:53:37.259Z,50.81
2023-07-25T04:53:45.257Z,28.77
2023-07-25T04:53:51.733Z,43.1
2023-07-25T04:54:21.748Z,51.76
2023-07-25T04:54:39.267Z,32.87
2023-07-25T04:54:51.748Z,52.86
2023-07-25T04:55:04.266Z,50.25
2023-07-25T04:55:21.770Z,50.98
2023-07-25T04:55:51.768Z,52.84
2023-07-25T04:56:21.781Z,53.09
2023-07-25T04:56:30.278Z,49.08
2023-07-25T04:56:51.778Z,51.8
2023-07-25T04:57:21.267Z,31.66
2023-07-25T04:57:26.272Z,51.64
2023-07-25T04:57:51.789Z,50.61
2023-07-25T04:58:04.270Z,47.93
2023-07-25T04:58:21.814Z,53
2023-07-25T04:58:31.271Z,32.16
2023-07-25T04:58:51.804Z,67.92
2023-07-25T04:59:21.807Z,68.1
2023-07-25T04:59:51.819Z,66.95
2023-07-25T05:00:21.821Z,68.02
2023-07-25T05:00:51.279Z,72.86
2023-07-25T05:00:51.826Z,72.86
2023-07-25T05:01:04.295Z,77.58
2023-07-25T05:01:21.863Z,78.63
2023-07-25T05:01:51.861Z,84.25
2023-07-25T05:02:21.877Z,81.81
2023-07-25T05:02:40.352Z,77.83
2023-07-25T05:02:51.926Z,75.57
2023-07-25T05:03:51.904Z,68.47
2023-07-25T05:04:03.322Z,66.25
2023-07-25T05:04:21.880Z,65.67
2023-07-25T05:04:51.880Z,72.57
2023-07-25T05:05:21.889Z,73.09
2023-07-25T05:05:37.291Z,76.66
2023-07-25T05:05:51.898Z,77.5
2023-07-25T05:06:21.925Z,77.33
2023-07-25T05:06:51.923Z,75.54
2023-07-25T05:07:01.287Z,72.82
2023-07-25T05:07:21.928Z,68.09
2023-07-25T05:07:51.933Z,53.19
2023-07-25T05:07:54.293Z,23.75
2023-07-25T05:08:05.294Z,45.45
2023-07-25T05:08:21.945Z,40.33
2023-07-25T05:08:27.292Z,32.12
2023-07-25T05:08:51.934Z,18.26
2023-07-25T05:08:56.286Z,17.67
2023-07-25T05:09:08.304Z,25.06
2023-07-25T05:09:31.314Z,29.42
2023-07-25T05:09:51.949Z,58.96
2023-07-25T05:10:00.288Z,40.12
2023-07-25T05:10:12.298Z,32.63
2023-07-25T05:10:36.292Z,35.26
2023-07-25T05:10:51.961Z,51.12
2023-07-25T05:11:00.302Z,48.66
2023-07-25T05:11:18.295Z,32.47
2023-07-25T05:11:25.293Z,25.53
2023-07-25T05:11:36.304Z,50.41
2023-07-25T05:11:51.978Z,29.54
2023-07-25T05:12:21.990Z,54.68
2023-07-25T05:12:34.319Z,47.58
2023-07-25T05:12:39.298Z,54.36
2023-07-25T05:12:52.000Z,10.63
2023-07-25T05:13:08.297Z,66.79
2023-07-25T05:13:22.008Z,68.78
2023-07-25T05:13:52.031Z,70.55
2023-07-25T05:14:22.025Z,67.82
2023-07-25T05:14:49.300Z,73.28
2023-07-25T05:15:22.036Z,73.26
2023-07-25T05:15:52.056Z,71.06
2023-07-25T05:15:55.341Z,69.62
2023-07-25T05:16:22.052Z,65.01
2023-07-25T05:16:52.058Z,65.87
2023-07-25T05:17:22.070Z,65.51
2023-07-25T05:17:39.328Z,69.94
2023-07-25T05:17:52.070Z,71.97
2023-07-25T05:18:22.083Z,70.5
2023-07-25T05:18:52.146Z,72.03
2023-07-25T05:19:15.958Z,73.65
2023-07-25T05:19:22.097Z,73.1
2023-07-25T05:19:52.098Z,78.46
2023-07-25T05:19:58.306Z,74.02
2023-07-25T05:20:22.107Z,70.02
2023-07-25T05:20:46.318Z,74.05
2023-07-25T05:20:52.109Z,73.26
2023-07-25T05:21:09.320Z,78.75
2023-07-25T05:21:22.123Z,74
2023-07-25T05:21:52.118Z,80.46
2023-07-25T05:21:57.310Z,83.36
2023-07-25T05:22:11.321Z,93.14
2023-07-25T05:22:22.134Z,94.17
2023-07-25T05:22:52.132Z,110.17
2023-07-25T05:22:57.317Z,90.39
2023-07-25T05:23:14.314Z,119.05
2023-07-25T05:23:22.147Z,124.46
2023-07-25T05:23:52.152Z,56.91
2023-07-25T05:23:58.332Z,62.48
2023-07-25T05:24:18.326Z,80.01
2023-07-25T05:24:22.216Z,80.1
2023-07-25T05:24:52.222Z,72.73
2023-07-25T05:25:22.166Z,62.7
2023-07-25T05:25:25.320Z,61.48
2023-07-25T05:25:52.172Z,56.59
2023-07-25T05:26:22.192Z,56.86
2023-07-25T05:26:52.202Z,57.41
2023-07-25T05:27:22.198Z,58.65
2023-07-25T05:27:52.226Z,58.83
2023-07-25T05:28:19.335Z,61.89
2023-07-25T05:28:22.230Z,62.12
2023-07-25T05:28:52.228Z,69.17
2023-07-25T05:29:09.333Z,72.95
2023-07-25T05:29:22.223Z,74.3
2023-07-25T05:29:52.249Z,69.71
2023-07-25T05:29:52.456Z,69
2023-07-25T05:30:13.343Z,62.2
2023-07-25T05:30:22.239Z,36.26
2023-07-25T05:30:52.252Z,48.63
2023-07-25T05:31:00.377Z,46.77
2023-07-25T05:31:22.299Z,46.21
2023-07-25T05:31:27.415Z,43.96
2023-07-25T05:31:52.258Z,47.81
2023-07-25T05:32:01.333Z,40.41
2023-07-25T05:32:22.281Z,38.05
2023-07-25T05:32:36.396Z,36.51
2023-07-25T05:32:52.281Z,37.42
2023-07-25T05:33:06.413Z,38.69
2023-07-25T05:33:22.286Z,40.76
2023-07-25T05:33:43.332Z,43.22
2023-07-25T05:33:52.299Z,44.31
2023-07-25T05:34:10.343Z,51.46
2023-07-25T05:34:22.300Z,6.73
2023-07-25T05:34:48.344Z,66.95
2023-07-25T05:35:12.391Z,80.95
2023-07-25T05:35:22.306Z,66.85
2023-07-25T05:35:52.326Z,64.02
2023-07-25T05:36:22.338Z,62.83
2023-07-25T05:36:52.333Z,64.35
2023-07-25T05:37:22.339Z,68.87
2023-07-25T05:37:30.344Z,70.8
2023-07-25T05:37:52.342Z,75.15
2023-07-25T05:38:09.528Z,79.14
2023-07-25T05:38:22.350Z,78.74
2023-07-25T05:38:52.355Z,76.38
2023-07-25T05:38:54.349Z,75.04
2023-07-25T05:39:15.344Z,71.23
2023-07-25T05:39:22.357Z,69.51
2023-07-25T05:39:31.374Z,67.81
2023-07-25T05:39:52.383Z,65.88
2023-07-25T05:39:54.348Z,64